This is the latest recevied weather packets stored in our database for station/object IK0OZB-10. If no packets are shown the sender has not sent any weather packets the latest 10 day(s).
| Time | Temp. | Humidity | Pressure | Rain* | Wind** | Luminosity | Snow |
|---|---|---|---|---|---|---|---|
| 1777579655 | 17.22° C | 82% | 1019.1 hPa | - | - | - | - |
| 1777577854 | 17.22° C | 82% | 1019.1 hPa | - | - | - | - |
| 1777576954 | 17.22° C | 82% | 1019.1 hPa | - | - | - | - |
| 1777573354 | 17.22° C | 81% | 1018.7 hPa | - | - | - | - |
| 1777572454 | 17.22° C | 81% | 1018.7 hPa | - | - | - | - |
| 1777566153 | 17.78° C | 82% | 1018.4 hPa | - | - | - | - |
| 1777565253 | 17.78° C | 81% | 1018.4 hPa | - | - | - | - |
| 1777558051 | 23.33° C | 58% | 1017.7 hPa | - | - | - | - |
| 1777557151 | 23.33° C | 59% | 1017.5 hPa | - | - | - | - |
| 1777552650 | 21.67° C | 63% | 1017.7 hPa | - | - | - | - |
| 1777551750 | 22.78° C | 61% | 1017.7 hPa | - | - | - | - |
| 1777550850 | 22.78° C | 62% | 1017.7 hPa | - | - | - | - |
| 1777545449 | 21.11° C | 64% | 1017.8 hPa | - | - | - | - |
| 1777544549 | 21.11° C | 65% | 1017.9 hPa | - | - | - | - |
| 1777543649 | 20.56° C | 65% | 1017.9 hPa | - | - | - | - |
| 1777541848 | 20.56° C | 66% | 1017.9 hPa | - | - | - | - |
| 1777540948 | 20° C | 66% | 1018.1 hPa | - | - | - | - |
| 1777540047 | 20° C | 67% | 1018.1 hPa | - | - | - | - |
| 1777538246 | 19.44° C | 68% | 1017.8 hPa | - | - | - | - |
| 1777537346 | 18.89° C | 68% | 1017.8 hPa | - | - | - | - |
| 1777536446 | 18.89° C | 71% | 1017.7 hPa | - | - | - | - |
| 1777534646 | 18.33° C | 76% | 1017.5 hPa | - | - | - | - |
| 1777533745 | 17.78° C | 77% | 1017.5 hPa | - | - | - | - |
| 1777532845 | 17.78° C | 78% | 1017.3 hPa | - | - | - | - |
| 1777531945 | 18.33° C | 79% | 1017.2 hPa | - | - | - | - |
* Rain since midnight (hover to see other rain measurements)
** Current wind speed in m/s (hover to see current wind gust speed)